This is the latest recevied weather packets stored in our database for station/object IW1RID-3. If no packets are shown the sender has not sent any weather packets the latest 10 day(s).
| Time | Temp. | Humidity | Pressure | Rain* | Wind** | Luminosity | Snow |
|---|---|---|---|---|---|---|---|
| 1778278840 | 13.89° C | 81% | 1074.8 hPa | - | - | - | - |
| 1778277635 | 14.44° C | 76% | 1074.7 hPa | - | - | - | - |
| 1778275226 | 15° C | 75% | 1074.4 hPa | - | - | - | - |
| 1778274020 | 15° C | 78% | 1074.4 hPa | - | - | - | - |
| 1778272815 | 15° C | 79% | 1074.3 hPa | - | - | - | - |
| 1778271610 | 15.56° C | 79% | 1074.3 hPa | - | - | - | - |
| 1778270403 | 16.11° C | 77% | 1074.2 hPa | - | - | - | - |
| 1778269199 | 15.56° C | 79% | 1073.9 hPa | - | - | - | - |
| 1778267994 | 17.22° C | 71% | 1073.4 hPa | - | - | - | - |
| 1778266788 | 17.22° C | 71% | 1073.2 hPa | - | - | - | - |
| 1778265584 | 17.22° C | 69% | 1073.1 hPa | - | - | - | - |
| 1778264379 | 18.33° C | 63% | 1073 hPa | - | - | - | - |
| 1778263172 | 18.89° C | 58% | 1072.9 hPa | - | - | - | - |
| 1778261967 | 19.44° C | 54% | 1072.8 hPa | - | - | - | - |
| 1778260763 | 20.56° C | 51% | 1072.6 hPa | - | - | - | - |
| 1778259558 | 20° C | 50% | 1072.7 hPa | - | - | - | - |
| 1778258352 | 20° C | 51% | 1072.7 hPa | - | - | - | - |
| 1778257147 | 21.11° C | 49% | 1072.7 hPa | - | - | - | - |
| 1778255940 | 20.56° C | 50% | 1072.6 hPa | - | - | - | - |
| 1778254736 | 21.11° C | 48% | 1072.7 hPa | - | - | - | - |
| 1778253530 | 22.78° C | 42% | 1072.9 hPa | - | - | - | - |
| 1778252325 | 22.78° C | 41% | 1072.9 hPa | - | - | - | - |
| 1778251119 | 22.78° C | 43% | 1072.7 hPa | - | - | - | - |
| 1778249913 | 25° C | 38% | 1072.9 hPa | - | - | - | - |
| 1778247500 | 23.89° C | 44% | 1073 hPa | - | - | - | - |
* Rain since midnight (hover to see other rain measurements)
** Current wind speed in m/s (hover to see current wind gust speed)